sensor_id;sensor_type;location;lat;lon;timestamp;P1;durP1;ratioP1;P2;durP2;ratioP2
7575;SDS011;3829;50.798;4.358;2022-10-31T00:00:48;11.77;;;8.20;;
7575;SDS011;3829;50.798;4.358;2022-10-31T00:03:14;17.20;;;8.63;;
7575;SDS011;3829;50.798;4.358;2022-10-31T00:05:41;19.30;;;8.77;;
7575;SDS011;3829;50.798;4.358;2022-10-31T00:08:14;16.10;;;9.20;;
7575;SDS011;3829;50.798;4.358;2022-10-31T00:10:41;24.70;;;10.00;;
7575;SDS011;3829;50.798;4.358;2022-10-31T00:13:08;17.73;;;8.63;;
7575;SDS011;3829;50.798;4.358;2022-10-31T00:15:35;21.27;;;8.83;;
7575;SDS011;3829;50.798;4.358;2022-10-31T00:18:04;19.40;;;8.40;;
7575;SDS011;3829;50.798;4.358;2022-10-31T00:20:31;17.90;;;9.00;;
7575;SDS011;3829;50.798;4.358;2022-10-31T00:22:58;23.03;;;9.47;;
7575;SDS011;3829;50.798;4.358;2022-10-31T00:25:24;16.00;;;9.53;;
7575;SDS011;3829;50.798;4.358;2022-10-31T00:27:50;20.90;;;10.23;;
7575;SDS011;3829;50.798;4.358;2022-10-31T00:30:16;17.87;;;10.07;;
7575;SDS011;3829;50.798;4.358;2022-10-31T00:32:41;14.53;;;9.27;;
7575;SDS011;3829;50.798;4.358;2022-10-31T00:35:07;24.40;;;9.47;;
7575;SDS011;3829;50.798;4.358;2022-10-31T00:37:33;16.10;;;9.20;;
7575;SDS011;3829;50.798;4.358;2022-10-31T00:39:58;18.40;;;9.50;;
7575;SDS011;3829;50.798;4.358;2022-10-31T00:42:24;21.07;;;9.50;;
7575;SDS011;3829;50.798;4.358;2022-10-31T00:44:49;17.03;;;8.93;;
7575;SDS011;3829;50.798;4.358;2022-10-31T00:47:15;19.23;;;9.83;;
7575;SDS011;3829;50.798;4.358;2022-10-31T00:49:40;18.00;;;10.10;;
7575;SDS011;3829;50.798;4.358;2022-10-31T00:52:06;16.33;;;9.77;;
7575;SDS011;3829;50.798;4.358;2022-10-31T00:54:31;19.17;;;10.00;;
7575;SDS011;3829;50.798;4.358;2022-10-31T00:56:57;15.27;;;9.40;;
7575;SDS011;3829;50.798;4.358;2022-10-31T00:59:23;20.30;;;9.80;;
7575;SDS011;3829;50.798;4.358;2022-10-31T01:01:49;17.80;;;9.57;;
7575;SDS011;3829;50.798;4.358;2022-10-31T01:04:14;22.13;;;9.90;;
7575;SDS011;3829;50.798;4.358;2022-10-31T01:06:40;15.27;;;9.40;;
7575;SDS011;3829;50.798;4.358;2022-10-31T01:09:06;15.93;;;9.47;;
7575;SDS011;3829;50.798;4.358;2022-10-31T01:11:32;20.60;;;8.97;;
7575;SDS011;3829;50.798;4.358;2022-10-31T01:13:57;22.93;;;9.97;;
7575;SDS011;3829;50.798;4.358;2022-10-31T01:16:24;15.07;;;8.90;;
7575;SDS011;3829;50.798;4.358;2022-10-31T01:18:51;15.73;;;9.37;;
7575;SDS011;3829;50.798;4.358;2022-10-31T01:21:18;19.73;;;9.13;;
7575;SDS011;3829;50.798;4.358;2022-10-31T01:23:48;21.30;;;9.37;;
7575;SDS011;3829;50.798;4.358;2022-10-31T01:26:16;17.60;;;9.13;;
7575;SDS011;3829;50.798;4.358;2022-10-31T01:28:54;13.77;;;9.17;;
7575;SDS011;3829;50.798;4.358;2022-10-31T01:31:23;20.33;;;9.40;;
7575;SDS011;3829;50.798;4.358;2022-10-31T01:33:50;16.93;;;8.97;;
7575;SDS011;3829;50.798;4.358;2022-10-31T01:38:47;18.13;;;10.20;;
7575;SDS011;3829;50.798;4.358;2022-10-31T01:41:15;15.03;;;9.27;;
7575;SDS011;3829;50.798;4.358;2022-10-31T01:43:46;18.50;;;8.83;;
7575;SDS011;3829;50.798;4.358;2022-10-31T01:46:19;18.97;;;9.73;;
7575;SDS011;3829;50.798;4.358;2022-10-31T01:48:51;17.13;;;9.03;;
7575;SDS011;3829;50.798;4.358;2022-10-31T01:51:18;21.83;;;10.23;;
7575;SDS011;3829;50.798;4.358;2022-10-31T01:53:47;20.00;;;9.57;;
7575;SDS011;3829;50.798;4.358;2022-10-31T01:56:15;19.83;;;10.70;;
7575;SDS011;3829;50.798;4.358;2022-10-31T01:58:42;16.03;;;9.50;;
7575;SDS011;3829;50.798;4.358;2022-10-31T02:01:10;21.73;;;10.40;;
7575;SDS011;3829;50.798;4.358;2022-10-31T02:03:37;18.47;;;10.20;;
7575;SDS011;3829;50.798;4.358;2022-10-31T02:06:02;18.97;;;11.10;;
7575;SDS011;3829;50.798;4.358;2022-10-31T02:08:31;22.43;;;10.37;;
7575;SDS011;3829;50.798;4.358;2022-10-31T02:10:59;18.60;;;10.10;;
7575;SDS011;3829;50.798;4.358;2022-10-31T02:13:26;18.83;;;9.03;;
7575;SDS011;3829;50.798;4.358;2022-10-31T02:15:54;17.17;;;9.40;;
7575;SDS011;3829;50.798;4.358;2022-10-31T02:18:22;18.40;;;10.40;;
7575;SDS011;3829;50.798;4.358;2022-10-31T02:20:54;20.50;;;10.20;;
7575;SDS011;3829;50.798;4.358;2022-10-31T02:28:49;23.03;;;10.87;;
7575;SDS011;3829;50.798;4.358;2022-10-31T02:37:01;21.73;;;10.10;;
7575;SDS011;3829;50.798;4.358;2022-10-31T02:39:51;19.37;;;9.80;;
7575;SDS011;3829;50.798;4.358;2022-10-31T02:42:33;23.00;;;9.80;;
7575;SDS011;3829;50.798;4.358;2022-10-31T02:47:58;24.67;;;10.40;;
7575;SDS011;3829;50.798;4.358;2022-10-31T02:50:33;20.93;;;10.17;;
7575;SDS011;3829;50.798;4.358;2022-10-31T02:53:02;17.87;;;10.10;;
7575;SDS011;3829;50.798;4.358;2022-10-31T02:57:54;21.00;;;10.00;;
7575;SDS011;3829;50.798;4.358;2022-10-31T03:00:26;23.33;;;10.30;;
7575;SDS011;3829;50.798;4.358;2022-10-31T03:03:12;23.23;;;10.20;;
7575;SDS011;3829;50.798;4.358;2022-10-31T03:17:07;18.07;;;9.33;;
7575;SDS011;3829;50.798;4.358;2022-10-31T03:19:42;17.07;;;9.00;;
7575;SDS011;3829;50.798;4.358;2022-10-31T03:22:15;15.07;;;8.13;;
7575;SDS011;3829;50.798;4.358;2022-10-31T03:24:44;14.87;;;8.93;;
7575;SDS011;3829;50.798;4.358;2022-10-31T03:27:12;17.93;;;10.50;;
7575;SDS011;3829;50.798;4.358;2022-10-31T03:29:42;24.10;;;10.03;;
7575;SDS011;3829;50.798;4.358;2022-10-31T03:32:13;17.33;;;8.97;;
7575;SDS011;3829;50.798;4.358;2022-10-31T03:34:42;19.23;;;9.60;;
7575;SDS011;3829;50.798;4.358;2022-10-31T03:37:10;14.43;;;10.20;;
7575;SDS011;3829;50.798;4.358;2022-10-31T03:39:40;20.97;;;9.57;;
7575;SDS011;3829;50.798;4.358;2022-10-31T03:42:11;15.67;;;9.77;;
7575;SDS011;3829;50.798;4.358;2022-10-31T03:44:53;20.67;;;10.47;;
7575;SDS011;3829;50.798;4.358;2022-10-31T03:47:24;22.10;;;10.63;;
7575;SDS011;3829;50.798;4.358;2022-10-31T03:49:50;17.27;;;10.07;;
7575;SDS011;3829;50.798;4.358;2022-10-31T03:54:45;18.27;;;10.40;;
7575;SDS011;3829;50.798;4.358;2022-10-31T03:59:47;19.83;;;9.47;;
7575;SDS011;3829;50.798;4.358;2022-10-31T04:02:18;19.63;;;10.23;;
7575;SDS011;3829;50.798;4.358;2022-10-31T04:04:47;18.00;;;9.93;;
7575;SDS011;3829;50.798;4.358;2022-10-31T04:07:15;20.83;;;10.60;;
7575;SDS011;3829;50.798;4.358;2022-10-31T04:09:43;18.33;;;10.70;;
7575;SDS011;3829;50.798;4.358;2022-10-31T04:12:11;19.33;;;9.37;;
7575;SDS011;3829;50.798;4.358;2022-10-31T04:14:40;18.13;;;10.83;;
7575;SDS011;3829;50.798;4.358;2022-10-31T04:17:09;18.23;;;10.10;;
7575;SDS011;3829;50.798;4.358;2022-10-31T04:19:38;16.33;;;8.87;;
7575;SDS011;3829;50.798;4.358;2022-10-31T04:22:03;16.80;;;10.87;;
7575;SDS011;3829;50.798;4.358;2022-10-31T04:24:29;21.77;;;9.87;;
7575;SDS011;3829;50.798;4.358;2022-10-31T04:26:55;18.00;;;10.43;;
7575;SDS011;3829;50.798;4.358;2022-10-31T04:29:20;16.03;;;8.67;;
7575;SDS011;3829;50.798;4.358;2022-10-31T04:31:46;18.10;;;8.73;;
7575;SDS011;3829;50.798;4.358;2022-10-31T04:34:11;17.37;;;8.80;;
7575;SDS011;3829;50.798;4.358;2022-10-31T04:36:37;15.43;;;8.77;;
7575;SDS011;3829;50.798;4.358;2022-10-31T04:39:02;20.80;;;9.70;;
7575;SDS011;3829;50.798;4.358;2022-10-31T04:41:28;16.43;;;9.03;;
7575;SDS011;3829;50.798;4.358;2022-10-31T04:43:54;14.67;;;8.97;;
7575;SDS011;3829;50.798;4.358;2022-10-31T04:46:19;18.40;;;10.13;;
7575;SDS011;3829;50.798;4.358;2022-10-31T04:48:45;20.87;;;10.80;;
7575;SDS011;3829;50.798;4.358;2022-10-31T04:51:10;20.90;;;10.00;;
7575;SDS011;3829;50.798;4.358;2022-10-31T04:53:36;13.73;;;9.73;;
7575;SDS011;3829;50.798;4.358;2022-10-31T04:56:02;22.27;;;10.20;;
7575;SDS011;3829;50.798;4.358;2022-10-31T04:58:28;22.70;;;10.73;;
7575;SDS011;3829;50.798;4.358;2022-10-31T05:00:54;17.33;;;9.37;;
7575;SDS011;3829;50.798;4.358;2022-10-31T05:03:21;16.13;;;9.17;;
7575;SDS011;3829;50.798;4.358;2022-10-31T05:05:46;16.43;;;9.60;;
7575;SDS011;3829;50.798;4.358;2022-10-31T05:08:12;16.67;;;8.97;;
7575;SDS011;3829;50.798;4.358;2022-10-31T05:10:39;18.37;;;9.43;;
7575;SDS011;3829;50.798;4.358;2022-10-31T05:13:04;17.87;;;10.00;;
7575;SDS011;3829;50.798;4.358;2022-10-31T05:15:30;17.23;;;8.83;;
7575;SDS011;3829;50.798;4.358;2022-10-31T05:17:56;10.13;;;8.60;;
7575;SDS011;3829;50.798;4.358;2022-10-31T05:20:23;19.83;;;10.00;;
7575;SDS011;3829;50.798;4.358;2022-10-31T05:22:52;19.23;;;9.83;;
7575;SDS011;3829;50.798;4.358;2022-10-31T05:25:20;20.47;;;9.57;;
7575;SDS011;3829;50.798;4.358;2022-10-31T05:27:50;20.73;;;9.53;;
7575;SDS011;3829;50.798;4.358;2022-10-31T05:30:17;18.33;;;9.50;;
7575;SDS011;3829;50.798;4.358;2022-10-31T05:32:46;18.40;;;9.63;;
7575;SDS011;3829;50.798;4.358;2022-10-31T05:35:13;15.23;;;8.80;;
7575;SDS011;3829;50.798;4.358;2022-10-31T05:37:50;11.93;;;8.20;;
7575;SDS011;3829;50.798;4.358;2022-10-31T05:40:17;16.57;;;9.60;;
7575;SDS011;3829;50.798;4.358;2022-10-31T05:42:44;21.50;;;10.10;;
7575;SDS011;3829;50.798;4.358;2022-10-31T05:45:11;18.20;;;9.87;;
7575;SDS011;3829;50.798;4.358;2022-10-31T05:47:39;20.13;;;10.27;;
7575;SDS011;3829;50.798;4.358;2022-10-31T05:50:04;20.77;;;10.47;;
7575;SDS011;3829;50.798;4.358;2022-10-31T05:52:30;16.23;;;10.47;;
7575;SDS011;3829;50.798;4.358;2022-10-31T05:54:56;20.83;;;11.50;;
7575;SDS011;3829;50.798;4.358;2022-10-31T05:57:22;21.07;;;11.00;;
7575;SDS011;3829;50.798;4.358;2022-10-31T05:59:48;15.30;;;10.80;;
7575;SDS011;3829;50.798;4.358;2022-10-31T06:02:13;22.87;;;10.97;;
7575;SDS011;3829;50.798;4.358;2022-10-31T06:04:39;20.33;;;11.03;;
7575;SDS011;3829;50.798;4.358;2022-10-31T06:07:04;22.03;;;12.33;;
7575;SDS011;3829;50.798;4.358;2022-10-31T06:09:30;18.93;;;11.10;;
7575;SDS011;3829;50.798;4.358;2022-10-31T06:11:55;26.03;;;11.80;;
7575;SDS011;3829;50.798;4.358;2022-10-31T06:14:21;24.83;;;11.83;;
7575;SDS011;3829;50.798;4.358;2022-10-31T06:16:47;23.03;;;12.33;;
7575;SDS011;3829;50.798;4.358;2022-10-31T06:19:12;22.97;;;11.60;;
7575;SDS011;3829;50.798;4.358;2022-10-31T06:21:38;23.10;;;11.97;;
7575;SDS011;3829;50.798;4.358;2022-10-31T06:24:03;23.77;;;12.57;;
7575;SDS011;3829;50.798;4.358;2022-10-31T06:26:29;16.60;;;10.77;;
7575;SDS011;3829;50.798;4.358;2022-10-31T06:28:55;25.00;;;11.80;;
7575;SDS011;3829;50.798;4.358;2022-10-31T06:31:20;21.43;;;11.87;;
7575;SDS011;3829;50.798;4.358;2022-10-31T06:33:46;21.10;;;11.20;;
7575;SDS011;3829;50.798;4.358;2022-10-31T06:36:11;22.53;;;11.33;;
7575;SDS011;3829;50.798;4.358;2022-10-31T06:38:37;20.40;;;11.50;;
7575;SDS011;3829;50.798;4.358;2022-10-31T06:41:03;27.23;;;11.37;;
7575;SDS011;3829;50.798;4.358;2022-10-31T06:43:29;23.57;;;11.70;;
7575;SDS011;3829;50.798;4.358;2022-10-31T06:45:55;22.37;;;11.53;;
7575;SDS011;3829;50.798;4.358;2022-10-31T06:48:21;19.93;;;12.27;;
7575;SDS011;3829;50.798;4.358;2022-10-31T06:50:47;18.33;;;11.57;;
7575;SDS011;3829;50.798;4.358;2022-10-31T06:53:12;21.23;;;11.87;;
7575;SDS011;3829;50.798;4.358;2022-10-31T06:55:41;22.40;;;12.23;;
7575;SDS011;3829;50.798;4.358;2022-10-31T06:58:08;22.23;;;12.30;;
7575;SDS011;3829;50.798;4.358;2022-10-31T07:00:35;21.83;;;12.50;;
7575;SDS011;3829;50.798;4.358;2022-10-31T07:03:04;17.73;;;10.57;;
7575;SDS011;3829;50.798;4.358;2022-10-31T07:05:31;20.57;;;11.50;;
7575;SDS011;3829;50.798;4.358;2022-10-31T07:08:04;18.80;;;11.87;;
7575;SDS011;3829;50.798;4.358;2022-10-31T07:10:32;20.73;;;12.03;;
7575;SDS011;3829;50.798;4.358;2022-10-31T07:13:00;20.37;;;11.07;;
7575;SDS011;3829;50.798;4.358;2022-10-31T07:15:27;19.70;;;11.00;;
7575;SDS011;3829;50.798;4.358;2022-10-31T07:17:59;18.27;;;11.40;;
7575;SDS011;3829;50.798;4.358;2022-10-31T07:20:26;18.83;;;11.20;;
7575;SDS011;3829;50.798;4.358;2022-10-31T07:22:53;23.37;;;10.93;;
7575;SDS011;3829;50.798;4.358;2022-10-31T07:25:19;18.57;;;10.27;;
7575;SDS011;3829;50.798;4.358;2022-10-31T07:27:45;24.87;;;10.47;;
7575;SDS011;3829;50.798;4.358;2022-10-31T07:30:11;18.27;;;10.60;;
7575;SDS011;3829;50.798;4.358;2022-10-31T07:32:41;18.97;;;10.77;;
7575;SDS011;3829;50.798;4.358;2022-10-31T07:35:13;20.20;;;11.17;;
7575;SDS011;3829;50.798;4.358;2022-10-31T07:37:40;24.10;;;12.07;;
7575;SDS011;3829;50.798;4.358;2022-10-31T07:40:06;17.77;;;11.03;;
7575;SDS011;3829;50.798;4.358;2022-10-31T07:42:36;17.70;;;11.37;;
7575;SDS011;3829;50.798;4.358;2022-10-31T07:45:10;20.10;;;10.97;;
7575;SDS011;3829;50.798;4.358;2022-10-31T07:47:40;18.67;;;12.13;;
7575;SDS011;3829;50.798;4.358;2022-10-31T07:50:08;18.30;;;11.30;;
7575;SDS011;3829;50.798;4.358;2022-10-31T07:52:35;17.83;;;10.33;;
7575;SDS011;3829;50.798;4.358;2022-10-31T07:55:01;19.77;;;10.93;;
7575;SDS011;3829;50.798;4.358;2022-10-31T07:57:27;19.73;;;11.87;;
7575;SDS011;3829;50.798;4.358;2022-10-31T07:59:53;16.93;;;10.87;;
7575;SDS011;3829;50.798;4.358;2022-10-31T08:02:18;17.53;;;9.73;;
7575;SDS011;3829;50.798;4.358;2022-10-31T08:04:44;18.80;;;9.80;;
7575;SDS011;3829;50.798;4.358;2022-10-31T08:07:09;13.80;;;8.63;;
7575;SDS011;3829;50.798;4.358;2022-10-31T08:09:35;14.93;;;10.03;;
7575;SDS011;3829;50.798;4.358;2022-10-31T08:12:00;17.80;;;8.13;;
7575;SDS011;3829;50.798;4.358;2022-10-31T08:14:26;17.30;;;8.83;;
7575;SDS011;3829;50.798;4.358;2022-10-31T08:16:52;15.67;;;8.17;;
7575;SDS011;3829;50.798;4.358;2022-10-31T08:19:19;16.00;;;8.83;;
7575;SDS011;3829;50.798;4.358;2022-10-31T08:21:44;16.47;;;8.07;;
7575;SDS011;3829;50.798;4.358;2022-10-31T08:24:10;10.67;;;7.43;;
7575;SDS011;3829;50.798;4.358;2022-10-31T08:26:36;16.00;;;6.93;;
7575;SDS011;3829;50.798;4.358;2022-10-31T08:29:02;13.10;;;6.87;;
7575;SDS011;3829;50.798;4.358;2022-10-31T08:31:28;12.23;;;6.60;;
7575;SDS011;3829;50.798;4.358;2022-10-31T08:33:54;12.03;;;6.43;;
7575;SDS011;3829;50.798;4.358;2022-10-31T08:36:20;11.80;;;6.37;;
7575;SDS011;3829;50.798;4.358;2022-10-31T08:38:46;13.53;;;6.90;;
7575;SDS011;3829;50.798;4.358;2022-10-31T08:41:12;11.93;;;6.00;;
7575;SDS011;3829;50.798;4.358;2022-10-31T08:43:37;9.20;;;6.13;;
7575;SDS011;3829;50.798;4.358;2022-10-31T08:46:03;9.70;;;5.93;;
7575;SDS011;3829;50.798;4.358;2022-10-31T08:48:29;7.80;;;5.73;;
7575;SDS011;3829;50.798;4.358;2022-10-31T08:50:56;9.23;;;6.23;;
7575;SDS011;3829;50.798;4.358;2022-10-31T08:53:23;13.33;;;6.60;;
7575;SDS011;3829;50.798;4.358;2022-10-31T08:55:49;12.20;;;7.20;;
7575;SDS011;3829;50.798;4.358;2022-10-31T08:58:16;10.83;;;6.57;;
7575;SDS011;3829;50.798;4.358;2022-10-31T09:00:44;11.90;;;6.37;;
7575;SDS011;3829;50.798;4.358;2022-10-31T09:03:11;13.23;;;6.90;;
7575;SDS011;3829;50.798;4.358;2022-10-31T09:05:42;12.00;;;6.90;;
7575;SDS011;3829;50.798;4.358;2022-10-31T09:08:08;11.23;;;6.70;;
7575;SDS011;3829;50.798;4.358;2022-10-31T09:10:35;13.23;;;6.87;;
7575;SDS011;3829;50.798;4.358;2022-10-31T09:13:02;12.67;;;6.70;;
7575;SDS011;3829;50.798;4.358;2022-10-31T09:15:31;12.83;;;7.50;;
7575;SDS011;3829;50.798;4.358;2022-10-31T09:18:01;10.37;;;7.03;;
7575;SDS011;3829;50.798;4.358;2022-10-31T09:20:27;15.47;;;6.87;;
7575;SDS011;3829;50.798;4.358;2022-10-31T09:23:03;14.40;;;6.00;;
7575;SDS011;3829;50.798;4.358;2022-10-31T09:25:32;12.20;;;6.47;;
7575;SDS011;3829;50.798;4.358;2022-10-31T09:27:59;12.27;;;6.83;;
7575;SDS011;3829;50.798;4.358;2022-10-31T09:30:27;9.60;;;6.60;;
7575;SDS011;3829;50.798;4.358;2022-10-31T09:32:58;18.53;;;6.93;;
7575;SDS011;3829;50.798;4.358;2022-10-31T09:35:25;13.47;;;6.93;;
7575;SDS011;3829;50.798;4.358;2022-10-31T09:37:53;11.83;;;6.27;;
7575;SDS011;3829;50.798;4.358;2022-10-31T09:40:20;11.00;;;6.50;;
7575;SDS011;3829;50.798;4.358;2022-10-31T09:42:56;10.77;;;5.93;;
7575;SDS011;3829;50.798;4.358;2022-10-31T09:51:29;10.17;;;6.33;;
7575;SDS011;3829;50.798;4.358;2022-10-31T09:54:14;9.47;;;5.70;;
7575;SDS011;3829;50.798;4.358;2022-10-31T09:56:46;11.80;;;7.03;;
7575;SDS011;3829;50.798;4.358;2022-10-31T09:59:24;13.00;;;6.43;;
7575;SDS011;3829;50.798;4.358;2022-10-31T10:02:04;12.03;;;6.40;;
7575;SDS011;3829;50.798;4.358;2022-10-31T10:04:48;14.80;;;6.53;;
7575;SDS011;3829;50.798;4.358;2022-10-31T10:15:27;9.23;;;6.47;;
7575;SDS011;3829;50.798;4.358;2022-10-31T10:21:03;12.33;;;6.67;;
7575;SDS011;3829;50.798;4.358;2022-10-31T10:26:38;15.63;;;6.67;;
7575;SDS011;3829;50.798;4.358;2022-10-31T10:31:52;14.63;;;7.13;;
7575;SDS011;3829;50.798;4.358;2022-10-31T10:35:04;16.70;;;7.23;;
7575;SDS011;3829;50.798;4.358;2022-10-31T10:39:49;17.63;;;7.60;;
7575;SDS011;3829;50.798;4.358;2022-10-31T10:42:18;16.10;;;8.13;;
7575;SDS011;3829;50.798;4.358;2022-10-31T10:45:13;18.77;;;8.17;;
7575;SDS011;3829;50.798;4.358;2022-10-31T10:48:47;15.07;;;8.73;;
7575;SDS011;3829;50.798;4.358;2022-10-31T10:51:00;14.50;;;8.47;;
7575;SDS011;3829;50.798;4.358;2022-10-31T10:53:39;11.93;;;8.47;;
7575;SDS011;3829;50.798;4.358;2022-10-31T10:56:36;14.87;;;7.90;;
7575;SDS011;3829;50.798;4.358;2022-10-31T10:59:09;17.07;;;8.33;;
7575;SDS011;3829;50.798;4.358;2022-10-31T11:01:39;14.67;;;7.77;;
7575;SDS011;3829;50.798;4.358;2022-10-31T11:04:24;14.27;;;8.53;;
7575;SDS011;3829;50.798;4.358;2022-10-31T11:06:58;16.90;;;9.13;;
7575;SDS011;3829;50.798;4.358;2022-10-31T11:09:25;17.53;;;8.93;;
7575;SDS011;3829;50.798;4.358;2022-10-31T11:11:51;11.80;;;7.40;;
7575;SDS011;3829;50.798;4.358;2022-10-31T11:14:17;16.83;;;8.60;;
7575;SDS011;3829;50.798;4.358;2022-10-31T11:16:44;12.93;;;7.47;;
7575;SDS011;3829;50.798;4.358;2022-10-31T11:21:42;16.70;;;7.77;;
7575;SDS011;3829;50.798;4.358;2022-10-31T11:26:35;16.70;;;7.73;;
7575;SDS011;3829;50.798;4.358;2022-10-31T11:29:05;15.67;;;7.93;;
7575;SDS011;3829;50.798;4.358;2022-10-31T11:31:39;14.93;;;8.83;;
7575;SDS011;3829;50.798;4.358;2022-10-31T11:34:06;14.33;;;7.80;;
7575;SDS011;3829;50.798;4.358;2022-10-31T11:36:43;13.67;;;7.70;;
7575;SDS011;3829;50.798;4.358;2022-10-31T11:39:17;15.00;;;7.10;;
7575;SDS011;3829;50.798;4.358;2022-10-31T11:41:46;17.03;;;7.83;;
7575;SDS011;3829;50.798;4.358;2022-10-31T11:47:01;16.20;;;7.43;;
7575;SDS011;3829;50.798;4.358;2022-10-31T11:49:35;15.40;;;7.87;;
7575;SDS011;3829;50.798;4.358;2022-10-31T11:52:12;14.73;;;7.80;;
7575;SDS011;3829;50.798;4.358;2022-10-31T11:54:58;17.67;;;8.57;;
7575;SDS011;3829;50.798;4.358;2022-10-31T11:57:28;15.30;;;7.80;;
7575;SDS011;3829;50.798;4.358;2022-10-31T11:59:56;12.40;;;6.97;;
7575;SDS011;3829;50.798;4.358;2022-10-31T12:02:23;16.07;;;7.23;;
7575;SDS011;3829;50.798;4.358;2022-10-31T12:07:27;14.87;;;9.07;;
7575;SDS011;3829;50.798;4.358;2022-10-31T12:09:53;19.53;;;8.90;;
7575;SDS011;3829;50.798;4.358;2022-10-31T12:17:55;17.30;;;7.43;;
7575;SDS011;3829;50.798;4.358;2022-10-31T12:26:14;15.33;;;7.00;;
7575;SDS011;3829;50.798;4.358;2022-10-31T12:28:49;13.23;;;6.70;;
7575;SDS011;3829;50.798;4.358;2022-10-31T12:31:38;18.63;;;7.13;;
7575;SDS011;3829;50.798;4.358;2022-10-31T12:37:09;17.07;;;7.13;;
7575;SDS011;3829;50.798;4.358;2022-10-31T12:39:48;17.80;;;6.63;;
7575;SDS011;3829;50.798;4.358;2022-10-31T12:48:14;11.30;;;6.03;;
7575;SDS011;3829;50.798;4.358;2022-10-31T12:50:56;13.67;;;5.83;;
7575;SDS011;3829;50.798;4.358;2022-10-31T12:56:44;10.73;;;6.27;;
7575;SDS011;3829;50.798;4.358;2022-10-31T13:01:49;12.27;;;5.67;;
7575;SDS011;3829;50.798;4.358;2022-10-31T13:04:34;12.40;;;5.57;;
7575;SDS011;3829;50.798;4.358;2022-10-31T13:07:09;10.63;;;4.97;;
7575;SDS011;3829;50.798;4.358;2022-10-31T13:09:49;12.33;;;5.67;;
7575;SDS011;3829;50.798;4.358;2022-10-31T13:12:27;15.33;;;5.43;;
7575;SDS011;3829;50.798;4.358;2022-10-31T13:14:58;11.80;;;5.73;;
7575;SDS011;3829;50.798;4.358;2022-10-31T13:17:30;10.97;;;5.50;;
7575;SDS011;3829;50.798;4.358;2022-10-31T13:20:42;16.47;;;5.57;;
7575;SDS011;3829;50.798;4.358;2022-10-31T13:22:56;14.27;;;5.57;;
7575;SDS011;3829;50.798;4.358;2022-10-31T13:25:38;12.17;;;5.03;;
7575;SDS011;3829;50.798;4.358;2022-10-31T13:31:02;17.90;;;5.40;;
7575;SDS011;3829;50.798;4.358;2022-10-31T13:34:03;14.53;;;6.77;;
7575;SDS011;3829;50.798;4.358;2022-10-31T13:36:31;18.00;;;6.53;;
7575;SDS011;3829;50.798;4.358;2022-10-31T13:39:02;17.67;;;6.67;;
7575;SDS011;3829;50.798;4.358;2022-10-31T13:44:32;16.70;;;6.27;;
7575;SDS011;3829;50.798;4.358;2022-10-31T13:47:02;12.90;;;5.93;;
7575;SDS011;3829;50.798;4.358;2022-10-31T13:52:15;13.77;;;6.03;;
7575;SDS011;3829;50.798;4.358;2022-10-31T13:54:43;11.10;;;6.13;;
7575;SDS011;3829;50.798;4.358;2022-10-31T14:00:12;15.47;;;5.63;;
7575;SDS011;3829;50.798;4.358;2022-10-31T14:02:51;18.23;;;5.83;;
7575;SDS011;3829;50.798;4.358;2022-10-31T14:07:51;14.17;;;5.70;;
7575;SDS011;3829;50.798;4.358;2022-10-31T14:10:28;11.77;;;6.03;;
7575;SDS011;3829;50.798;4.358;2022-10-31T14:13:17;13.90;;;5.23;;
7575;SDS011;3829;50.798;4.358;2022-10-31T14:18:24;11.00;;;5.10;;
7575;SDS011;3829;50.798;4.358;2022-10-31T14:20:55;11.83;;;5.30;;
7575;SDS011;3829;50.798;4.358;2022-10-31T14:28:43;14.57;;;5.17;;
7575;SDS011;3829;50.798;4.358;2022-10-31T14:33:56;10.77;;;4.87;;
7575;SDS011;3829;50.798;4.358;2022-10-31T14:36:37;13.10;;;5.10;;
7575;SDS011;3829;50.798;4.358;2022-10-31T14:39:29;12.20;;;4.93;;
7575;SDS011;3829;50.798;4.358;2022-10-31T14:42:02;11.43;;;6.00;;
7575;SDS011;3829;50.798;4.358;2022-10-31T14:45:00;18.63;;;4.93;;
7575;SDS011;3829;50.798;4.358;2022-10-31T14:48:10;12.37;;;4.70;;
7575;SDS011;3829;50.798;4.358;2022-10-31T14:50:54;7.83;;;5.37;;
7575;SDS011;3829;50.798;4.358;2022-10-31T14:53:24;9.10;;;5.17;;
7575;SDS011;3829;50.798;4.358;2022-10-31T14:55:56;10.00;;;4.87;;
7575;SDS011;3829;50.798;4.358;2022-10-31T14:58:44;11.20;;;4.80;;
7575;SDS011;3829;50.798;4.358;2022-10-31T15:01:25;13.37;;;4.47;;
7575;SDS011;3829;50.798;4.358;2022-10-31T15:03:54;11.77;;;4.53;;
7575;SDS011;3829;50.798;4.358;2022-10-31T15:06:44;17.60;;;5.77;;
7575;SDS011;3829;50.798;4.358;2022-10-31T15:09:22;10.60;;;5.23;;
7575;SDS011;3829;50.798;4.358;2022-10-31T15:11:53;11.87;;;5.00;;
7575;SDS011;3829;50.798;4.358;2022-10-31T15:16:49;15.13;;;4.70;;
7575;SDS011;3829;50.798;4.358;2022-10-31T15:19:16;16.63;;;5.53;;
7575;SDS011;3829;50.798;4.358;2022-10-31T15:21:55;11.90;;;5.73;;
7575;SDS011;3829;50.798;4.358;2022-10-31T15:24:23;11.03;;;5.17;;
7575;SDS011;3829;50.798;4.358;2022-10-31T15:26:54;17.17;;;5.70;;
7575;SDS011;3829;50.798;4.358;2022-10-31T15:29:21;12.63;;;5.23;;
7575;SDS011;3829;50.798;4.358;2022-10-31T15:36:58;8.27;;;5.07;;
7575;SDS011;3829;50.798;4.358;2022-10-31T15:39:23;12.87;;;5.67;;
7575;SDS011;3829;50.798;4.358;2022-10-31T15:41:53;14.90;;;5.67;;
7575;SDS011;3829;50.798;4.358;2022-10-31T15:47:00;14.90;;;6.63;;
7575;SDS011;3829;50.798;4.358;2022-10-31T15:49:30;17.17;;;6.63;;
7575;SDS011;3829;50.798;4.358;2022-10-31T15:52:03;20.27;;;6.80;;
7575;SDS011;3829;50.798;4.358;2022-10-31T15:54:31;16.17;;;6.60;;
7575;SDS011;3829;50.798;4.358;2022-10-31T15:56:57;21.83;;;7.63;;
7575;SDS011;3829;50.798;4.358;2022-10-31T15:59:25;13.57;;;7.33;;
7575;SDS011;3829;50.798;4.358;2022-10-31T16:02:10;17.90;;;7.37;;
7575;SDS011;3829;50.798;4.358;2022-10-31T16:04:37;18.20;;;7.10;;
7575;SDS011;3829;50.798;4.358;2022-10-31T16:07:15;21.50;;;7.60;;
7575;SDS011;3829;50.798;4.358;2022-10-31T16:09:49;17.20;;;8.20;;
7575;SDS011;3829;50.798;4.358;2022-10-31T16:12:20;12.73;;;6.33;;
7575;SDS011;3829;50.798;4.358;2022-10-31T16:14:47;18.43;;;7.97;;
7575;SDS011;3829;50.798;4.358;2022-10-31T16:17:15;18.13;;;7.90;;
7575;SDS011;3829;50.798;4.358;2022-10-31T16:19:50;17.23;;;8.37;;
7575;SDS011;3829;50.798;4.358;2022-10-31T16:22:20;17.83;;;8.37;;
7575;SDS011;3829;50.798;4.358;2022-10-31T16:25:10;24.30;;;7.67;;
7575;SDS011;3829;50.798;4.358;2022-10-31T16:27:39;18.00;;;7.63;;
7575;SDS011;3829;50.798;4.358;2022-10-31T16:35:54;15.33;;;7.07;;
7575;SDS011;3829;50.798;4.358;2022-10-31T16:38:21;17.77;;;6.53;;
7575;SDS011;3829;50.798;4.358;2022-10-31T16:40:47;14.23;;;6.07;;
7575;SDS011;3829;50.798;4.358;2022-10-31T16:43:14;15.23;;;6.93;;
7575;SDS011;3829;50.798;4.358;2022-10-31T16:45:46;13.33;;;6.17;;
7575;SDS011;3829;50.798;4.358;2022-10-31T16:48:14;14.70;;;5.67;;
7575;SDS011;3829;50.798;4.358;2022-10-31T16:50:42;10.43;;;5.60;;
7575;SDS011;3829;50.798;4.358;2022-10-31T16:53:09;12.67;;;5.53;;
7575;SDS011;3829;50.798;4.358;2022-10-31T16:55:54;10.17;;;4.77;;
7575;SDS011;3829;50.798;4.358;2022-10-31T16:58:21;19.00;;;5.57;;
7575;SDS011;3829;50.798;4.358;2022-10-31T17:00:49;15.03;;;5.30;;
7575;SDS011;3829;50.798;4.358;2022-10-31T17:03:15;13.83;;;5.03;;
7575;SDS011;3829;50.798;4.358;2022-10-31T17:05:41;9.63;;;5.30;;
7575;SDS011;3829;50.798;4.358;2022-10-31T17:08:07;10.17;;;5.30;;
7575;SDS011;3829;50.798;4.358;2022-10-31T17:10:32;13.50;;;5.10;;
7575;SDS011;3829;50.798;4.358;2022-10-31T17:12:58;16.00;;;5.27;;
7575;SDS011;3829;50.798;4.358;2022-10-31T17:15:27;12.80;;;5.00;;
7575;SDS011;3829;50.798;4.358;2022-10-31T17:18:03;14.93;;;5.77;;
7575;SDS011;3829;50.798;4.358;2022-10-31T17:20:29;14.40;;;5.30;;
7575;SDS011;3829;50.798;4.358;2022-10-31T17:22:56;14.93;;;5.10;;
7575;SDS011;3829;50.798;4.358;2022-10-31T17:25:24;16.60;;;5.33;;
7575;SDS011;3829;50.798;4.358;2022-10-31T17:27:51;17.03;;;5.30;;
7575;SDS011;3829;50.798;4.358;2022-10-31T17:30:17;10.97;;;4.77;;
7575;SDS011;3829;50.798;4.358;2022-10-31T17:32:45;9.93;;;5.00;;